createdAt,value
2018-01-28T00:02:21.863Z,7.53
2018-01-28T00:04:52.065Z,7.33
2018-01-28T00:07:22.958Z,7.30
2018-01-28T00:09:53.178Z,7.36
2018-01-28T00:12:23.399Z,7.28
2018-01-28T00:14:53.586Z,7.22
2018-01-28T00:17:24.621Z,7.23
2018-01-28T00:19:55.292Z,7.20
2018-01-28T00:22:25.187Z,7.09
2018-01-28T00:24:55.162Z,7.05
2018-01-28T00:27:25.204Z,7.13
2018-01-28T00:29:55.914Z,7.14
2018-01-28T00:32:25.969Z,7.14
2018-01-28T00:34:55.949Z,7.13
2018-01-28T00:37:25.951Z,7.05
2018-01-28T00:39:55.925Z,7.08
2018-01-28T00:42:26.028Z,7.10
2018-01-28T00:44:56.960Z,7.01
2018-01-28T00:47:26.983Z,7.24
2018-01-28T00:49:57.640Z,7.25
2018-01-28T00:52:27.715Z,7.33
2018-01-28T00:54:57.826Z,7.24
2018-01-28T00:57:27.789Z,7.24
2018-01-28T00:59:57.747Z,7.24
2018-01-28T01:02:28.309Z,7.29
2018-01-28T01:04:58.238Z,7.25
2018-01-28T01:07:30.533Z,7.24
2018-01-28T01:10:01.128Z,7.24
2018-01-28T01:12:31.840Z,7.25
2018-01-28T01:15:01.944Z,7.33
2018-01-28T01:17:31.834Z,7.33
2018-01-28T01:20:01.853Z,7.28
2018-01-28T01:22:32.569Z,7.29
2018-01-28T01:25:02.472Z,7.35
2018-01-28T01:27:32.434Z,7.45
2018-01-28T01:30:02.213Z,7.40
2018-01-28T01:32:33.104Z,7.39
2018-01-28T01:35:03.048Z,7.50
2018-01-28T01:37:33.213Z,7.41
2018-01-28T01:40:03.161Z,7.39
2018-01-28T01:42:33.078Z,7.50
2018-01-28T01:45:03.230Z,7.47
2018-01-28T01:47:33.046Z,7.56
2018-01-28T01:50:02.944Z,7.54
2018-01-28T01:52:32.831Z,7.52
2018-01-28T01:55:02.771Z,7.52
2018-01-28T01:57:32.619Z,7.55
2018-01-28T02:00:03.363Z,7.57
2018-01-28T02:02:33.375Z,7.58
2018-01-28T02:05:04.479Z,7.57
2018-01-28T02:07:34.604Z,7.50
2018-01-28T02:10:04.901Z,7.64
2018-01-28T02:12:35.408Z,7.60
2018-01-28T02:15:06.391Z,7.62
2018-01-28T02:17:36.509Z,7.57
2018-01-28T02:20:06.656Z,7.61
2018-01-28T02:22:37.409Z,7.52
2018-01-28T02:25:08.532Z,7.62
2018-01-28T02:27:38.823Z,7.55
2018-01-28T02:30:09.085Z,7.78
2018-01-28T02:32:39.985Z,7.70
2018-01-28T02:35:10.218Z,7.76
2018-01-28T02:37:40.486Z,7.73
2018-01-28T02:40:10.756Z,7.71
2018-01-28T02:42:41.151Z,7.74
2018-01-28T02:45:11.400Z,7.79
2018-01-28T02:47:41.777Z,7.75
2018-01-28T02:50:13.173Z,7.77
2018-01-28T02:52:43.535Z,7.76
2018-01-28T02:55:13.758Z,7.78
2018-01-28T02:57:43.847Z,7.73
2018-01-28T03:00:14.016Z,7.79
2018-01-28T03:02:44.299Z,7.81
2018-01-28T03:05:14.614Z,7.86
2018-01-28T03:07:44.872Z,7.87
2018-01-28T03:10:15.100Z,7.88
2018-01-28T03:12:45.406Z,7.97
2018-01-28T03:15:15.705Z,7.97
2018-01-28T03:17:46.233Z,8.03
2018-01-28T03:20:16.671Z,8.00
2018-01-28T03:22:48.189Z,7.93
2018-01-28T03:25:18.992Z,8.07
2018-01-28T03:27:49.298Z,8.10
2018-01-28T03:30:19.540Z,8.09
2018-01-28T03:32:50.506Z,8.10
2018-01-28T03:35:21.685Z,8.15
2018-01-28T03:37:52.080Z,8.14
2018-01-28T03:40:23.206Z,8.08
2018-01-28T03:42:54.324Z,8.09
2018-01-28T03:45:24.636Z,8.09
2018-01-28T03:47:54.857Z,8.14
2018-01-28T03:50:25.079Z,8.14
2018-01-28T03:52:55.355Z,8.18
2018-01-28T03:55:25.985Z,8.16
2018-01-28T03:57:57.168Z,8.12
2018-01-28T04:00:27.560Z,8.10
2018-01-28T04:02:58.778Z,8.09
2018-01-28T04:05:29.088Z,8.08
2018-01-28T04:07:59.321Z,8.13
2018-01-28T04:10:29.640Z,8.07
2018-01-28T04:13:00.025Z,8.12
2018-01-28T04:15:30.310Z,8.12
2018-01-28T04:18:01.581Z,8.18
2018-01-28T04:20:31.827Z,8.24
2018-01-28T04:23:02.180Z,8.17
2018-01-28T04:25:32.417Z,8.09
2018-01-28T04:28:02.518Z,8.17
2018-01-28T04:30:32.602Z,8.16
2018-01-28T04:33:03.894Z,8.24
2018-01-28T04:35:34.496Z,8.18
2018-01-28T04:38:04.604Z,8.25
2018-01-28T04:40:34.858Z,8.28
2018-01-28T04:43:05.164Z,8.27
2018-01-28T04:45:35.390Z,8.30
2018-01-28T04:48:05.709Z,8.23
2018-01-28T04:50:35.857Z,8.28
2018-01-28T04:53:05.979Z,8.42
2018-01-28T04:55:36.289Z,8.42
2018-01-28T04:58:06.934Z,8.34
2018-01-28T05:00:37.673Z,8.37
2018-01-28T05:03:07.762Z,8.41
2018-01-28T05:05:37.850Z,8.41
2018-01-28T05:08:08.929Z,8.48
2018-01-28T05:10:39.053Z,8.44
2018-01-28T05:13:09.608Z,8.47
2018-01-28T05:15:40.187Z,8.45
2018-01-28T05:18:10.404Z,8.48
2018-01-28T05:20:41.564Z,8.56
2018-01-28T05:23:11.912Z,8.51
2018-01-28T05:25:42.202Z,8.55
2018-01-28T05:28:13.137Z,8.44
2018-01-28T05:30:44.771Z,8.51
2018-01-28T05:33:16.276Z,8.52
2018-01-28T05:35:46.407Z,8.47
2018-01-28T05:38:16.533Z,8.50
2018-01-28T05:40:46.906Z,8.53
2018-01-28T05:43:17.987Z,8.58
2018-01-28T05:45:48.155Z,8.60
2018-01-28T05:48:19.174Z,8.60
2018-01-28T05:50:49.352Z,8.55
2018-01-28T05:53:19.647Z,8.56
2018-01-28T05:55:50.711Z,8.65
2018-01-28T05:58:21.176Z,8.66
2018-01-28T06:00:51.328Z,8.68
2018-01-28T06:03:22.065Z,8.67
2018-01-28T06:05:52.651Z,8.69
2018-01-28T06:08:23.154Z,8.74
2018-01-28T06:10:53.443Z,8.76
2018-01-28T06:13:23.746Z,8.81
2018-01-28T06:15:54.217Z,8.75
2018-01-28T06:18:24.891Z,8.75
2018-01-28T06:20:55.071Z,8.80
2018-01-28T06:23:26.274Z,8.81
2018-01-28T06:25:56.543Z,8.80
2018-01-28T06:28:27.114Z,8.78
2018-01-28T06:30:57.581Z,8.73
2018-01-28T06:33:28.006Z,8.81
2018-01-28T06:35:58.270Z,8.78
2018-01-28T06:38:28.856Z,8.78
2018-01-28T06:41:01.126Z,8.79
2018-01-28T06:43:31.396Z,8.78
2018-01-28T06:46:01.673Z,8.84
2018-01-28T06:48:31.968Z,8.88
2018-01-28T06:51:02.305Z,8.80
2018-01-28T06:53:32.739Z,8.80
2018-01-28T06:56:03.253Z,8.85
2018-01-28T06:58:33.990Z,8.83
2018-01-28T07:01:04.550Z,8.85
2018-01-28T07:03:34.715Z,8.79
2018-01-28T07:06:05.232Z,8.87
2018-01-28T07:08:36.501Z,8.91
2018-01-28T07:11:06.683Z,8.89
2018-01-28T07:13:37.392Z,8.92
2018-01-28T07:16:08.222Z,8.96
2018-01-28T07:18:38.512Z,8.96
2018-01-28T07:21:08.768Z,8.90
2018-01-28T07:23:39.253Z,8.91
2018-01-28T07:26:09.396Z,8.94
2018-01-28T07:28:39.636Z,9.02
2018-01-28T07:31:09.999Z,8.95
2018-01-28T07:33:40.941Z,9.00
2018-01-28T07:36:11.939Z,8.98
2018-01-28T07:38:42.109Z,9.00
2018-01-28T07:41:12.455Z,8.95
2018-01-28T07:43:42.765Z,9.02
2018-01-28T07:46:13.745Z,9.12
2018-01-28T07:48:43.835Z,9.07
2018-01-28T07:51:14.952Z,9.06
2018-01-28T07:53:45.525Z,9.10
2018-01-28T07:56:15.680Z,9.14
2018-01-28T07:58:45.964Z,9.16
2018-01-28T08:01:16.287Z,9.14
2018-01-28T08:03:47.190Z,9.19
2018-01-28T08:06:17.493Z,9.23
2018-01-28T08:08:47.945Z,9.22
2018-01-28T08:11:18.444Z,9.26
2018-01-28T08:13:49.077Z,9.23
2018-01-28T08:16:19.620Z,9.26
2018-01-28T08:18:50.101Z,9.40
2018-01-28T08:21:21.234Z,9.33
2018-01-28T08:23:52.285Z,9.35
2018-01-28T08:26:23.458Z,9.35
2018-01-28T08:28:54.016Z,9.37
2018-01-28T08:31:24.418Z,9.40
2018-01-28T08:33:54.525Z,9.40
2018-01-28T08:36:25.524Z,9.52
2018-01-28T08:38:55.484Z,9.69
2018-01-28T08:41:26.003Z,9.69
2018-01-28T08:43:55.970Z,9.67
2018-01-28T08:46:26.085Z,9.62
2018-01-28T08:48:56.301Z,9.60
2018-01-28T08:51:26.686Z,9.60
2018-01-28T08:53:56.691Z,9.58
2018-01-28T08:56:26.765Z,9.65
2018-01-28T08:58:57.206Z,9.72
2018-01-28T09:01:27.109Z,9.77
2018-01-28T09:03:57.117Z,9.81
2018-01-28T09:06:26.947Z,9.75
2018-01-28T09:08:56.738Z,9.80
2018-01-28T09:11:26.714Z,9.81
2018-01-28T09:13:56.641Z,9.86
2018-01-28T09:16:26.548Z,9.89
2018-01-28T09:18:56.545Z,9.93
2018-01-28T09:21:26.350Z,10.05
2018-01-28T09:23:56.301Z,9.99
2018-01-28T09:26:27.145Z,10.16
2018-01-28T09:28:57.973Z,10.01
2018-01-28T09:31:28.854Z,10.00
2018-01-28T09:33:58.729Z,9.92
2018-01-28T09:36:29.578Z,10.02
2018-01-28T09:39:00.305Z,10.04
2018-01-28T09:41:31.182Z,10.02
2018-01-28T09:44:01.115Z,10.02
2018-01-28T09:46:31.942Z,10.00
2018-01-28T09:49:02.180Z,10.05
2018-01-28T09:51:32.418Z,10.13
2018-01-28T09:54:02.955Z,10.27
2018-01-28T09:56:32.958Z,10.24
2018-01-28T09:59:02.993Z,10.26
2018-01-28T10:01:33.150Z,10.25
2018-01-28T10:04:03.129Z,10.35
2018-01-28T10:06:34.021Z,10.43
2018-01-28T10:09:04.110Z,11.44
2018-01-28T10:11:35.109Z,12.64
2018-01-28T10:14:05.046Z,12.74
2018-01-28T10:16:34.953Z,13.48
2018-01-28T10:19:04.853Z,13.66
2018-01-28T10:21:35.013Z,14.02
2018-01-28T10:24:05.859Z,14.26
2018-01-28T10:26:36.048Z,14.33
2018-01-28T10:29:06.068Z,14.36
2018-01-28T10:31:36.684Z,14.28
2018-01-28T10:34:06.725Z,13.92
2018-01-28T10:36:37.454Z,14.07
2018-01-28T10:39:08.134Z,14.14
2018-01-28T10:41:38.040Z,14.04
2018-01-28T10:44:07.893Z,12.99
2018-01-28T10:46:37.923Z,12.40
2018-01-28T10:49:07.757Z,12.10
2018-01-28T10:51:38.474Z,11.88
2018-01-28T10:54:08.464Z,11.70
2018-01-28T10:56:38.543Z,11.59
2018-01-28T10:59:08.437Z,11.52
2018-01-28T11:01:39.168Z,11.56
2018-01-28T11:04:09.840Z,11.53
2018-01-28T11:06:39.708Z,11.48
2018-01-28T11:09:09.612Z,11.51
2018-01-28T11:11:39.509Z,11.56
2018-01-28T11:14:09.916Z,11.52
2018-01-28T11:16:40.316Z,11.57
2018-01-28T11:19:10.353Z,11.65
2018-01-28T11:21:40.205Z,11.65
2018-01-28T11:24:10.080Z,11.65
2018-01-28T11:26:40.112Z,11.72
2018-01-28T11:29:10.220Z,11.85
2018-01-28T11:31:40.060Z,11.84
2018-01-28T11:34:10.033Z,11.83
2018-01-28T11:36:39.859Z,11.87
2018-01-28T11:39:09.876Z,11.90
2018-01-28T11:41:39.793Z,12.04
2018-01-28T11:44:09.800Z,11.87
2018-01-28T11:46:41.362Z,12.04
2018-01-28T11:49:11.237Z,12.03
2018-01-28T11:51:42.064Z,12.17
2018-01-28T11:54:11.958Z,12.28
2018-01-28T11:56:41.866Z,12.25
2018-01-28T11:59:11.712Z,12.34
2018-01-28T12:01:41.628Z,12.34
2018-01-28T12:04:11.541Z,12.28
2018-01-28T12:06:41.473Z,12.35
2018-01-28T12:09:12.082Z,12.39
2018-01-28T12:11:42.164Z,12.43
2018-01-28T12:14:12.174Z,12.54
2018-01-28T12:16:42.152Z,12.51
2018-01-28T12:19:12.769Z,12.43
2018-01-28T12:21:42.681Z,12.52
2018-01-28T12:24:12.730Z,12.47
2018-01-28T12:26:43.397Z,12.42
2018-01-28T12:29:13.338Z,12.17
2018-01-28T12:31:43.574Z,12.23
2018-01-28T12:34:13.744Z,12.34
2018-01-28T12:36:43.661Z,12.25
2018-01-28T12:39:14.309Z,12.25
2018-01-28T12:41:44.244Z,12.26
2018-01-28T12:44:14.079Z,12.39
2018-01-28T12:46:44.065Z,12.21
2018-01-28T12:49:14.655Z,12.07
2018-01-28T12:51:45.262Z,12.03
2018-01-28T12:54:15.843Z,12.07
2018-01-28T12:56:45.665Z,11.94
2018-01-28T12:59:15.662Z,12.02
2018-01-28T13:01:45.505Z,12.03
2018-01-28T13:04:15.494Z,12.03
2018-01-28T13:06:45.434Z,11.92
2018-01-28T13:09:16.374Z,12.07
2018-01-28T13:11:46.394Z,12.13
2018-01-28T13:14:16.344Z,12.11
2018-01-28T13:16:46.321Z,11.98
2018-01-28T13:19:16.257Z,12.11
2018-01-28T13:21:47.168Z,12.18
2018-01-28T13:24:17.339Z,12.04
2018-01-28T13:26:47.337Z,11.94
2018-01-28T13:29:18.153Z,11.88
2018-01-28T13:31:48.589Z,11.60
2018-01-28T13:34:19.459Z,11.61
2018-01-28T13:36:49.498Z,11.67
2018-01-28T13:39:19.959Z,12.58
2018-01-28T13:41:50.566Z,12.44
2018-01-28T13:44:21.069Z,12.77
2018-01-28T13:46:51.608Z,13.14
2018-01-28T13:49:21.609Z,12.80
2018-01-28T13:51:51.566Z,12.48
2018-01-28T13:54:21.545Z,12.22
2018-01-28T13:56:51.430Z,12.03
2018-01-28T13:59:22.149Z,11.99
2018-01-28T14:01:52.206Z,11.88
2018-01-28T14:04:22.460Z,11.83
2018-01-28T14:06:52.534Z,11.88
2018-01-28T14:09:23.208Z,11.88
2018-01-28T14:11:53.411Z,11.90
2018-01-28T14:14:23.527Z,11.89
2018-01-28T14:16:53.374Z,11.89
2018-01-28T14:19:23.550Z,11.96
2018-01-28T14:21:54.073Z,11.97
2018-01-28T14:24:24.848Z,12.01
2018-01-28T14:26:54.997Z,11.98
2018-01-28T14:29:24.902Z,12.02
2018-01-28T14:31:54.822Z,11.98
2018-01-28T14:34:24.708Z,12.00
2018-01-28T14:36:54.740Z,12.02
2018-01-28T14:39:24.706Z,12.08
2018-01-28T14:41:55.312Z,12.08
2018-01-28T14:44:25.542Z,12.08
2018-01-28T14:46:55.696Z,12.02
2018-01-28T14:49:26.475Z,12.01
2018-01-28T14:51:56.473Z,12.04
2018-01-28T14:54:26.627Z,12.02
2018-01-28T14:56:56.634Z,12.07
2018-01-28T14:59:26.779Z,12.08
2018-01-28T15:01:58.268Z,12.00
2018-01-28T15:04:28.242Z,11.97
2018-01-28T15:06:58.921Z,12.03
2018-01-28T15:09:28.936Z,12.06
2018-01-28T15:11:58.812Z,11.99
2018-01-28T15:14:29.912Z,12.04
2018-01-28T15:16:59.860Z,12.06
2018-01-28T15:19:30.001Z,12.05
2018-01-28T15:22:00.173Z,12.00
2018-01-28T15:24:30.939Z,11.97
2018-01-28T15:27:00.845Z,12.11
2018-01-28T15:29:31.318Z,12.05
2018-01-28T15:32:01.673Z,12.05
2018-01-28T15:34:33.121Z,12.07
2018-01-28T15:37:03.811Z,12.04
2018-01-28T15:39:33.964Z,11.97
2018-01-28T15:42:05.282Z,12.10
2018-01-28T15:44:35.263Z,12.04
2018-01-28T15:47:05.353Z,12.03
2018-01-28T15:49:35.260Z,12.03
2018-01-28T15:52:05.155Z,12.03
2018-01-28T15:54:35.458Z,12.35
2018-01-28T15:57:05.314Z,12.46
2018-01-28T15:59:37.983Z,12.45
2018-01-28T16:02:08.586Z,12.41
2018-01-28T16:04:39.226Z,12.39
2018-01-28T16:07:09.875Z,12.45
2018-01-28T16:09:40.694Z,12.52
2018-01-28T16:12:10.870Z,12.42
2018-01-28T16:14:40.889Z,12.54
2018-01-28T16:17:11.588Z,12.67
2018-01-28T16:19:41.825Z,12.64
2018-01-28T16:22:11.752Z,12.49
2018-01-28T16:24:41.788Z,12.45
2018-01-28T16:27:12.634Z,12.36
2018-01-28T16:29:43.490Z,12.55
2018-01-28T16:32:13.839Z,12.67
2018-01-28T16:34:43.717Z,12.57
2018-01-28T16:37:13.880Z,12.66
2018-01-28T16:39:43.750Z,12.64
2018-01-28T16:42:14.187Z,12.54
2018-01-28T16:44:45.162Z,12.58
2018-01-28T16:47:15.165Z,12.68
2018-01-28T16:49:45.051Z,12.85
2018-01-28T16:52:16.224Z,12.78
2018-01-28T16:54:46.401Z,12.71
2018-01-28T16:57:17.409Z,12.74
2018-01-28T16:59:47.316Z,12.71
2018-01-28T17:02:17.304Z,12.72
2018-01-28T17:04:48.156Z,12.60
2018-01-28T17:07:19.099Z,12.69
2018-01-28T17:09:50.238Z,12.73
2018-01-28T17:12:20.961Z,12.79
2018-01-28T17:14:51.067Z,12.76
2018-01-28T17:17:21.049Z,12.66
2018-01-28T17:19:51.057Z,12.42
2018-01-28T17:22:21.205Z,12.33
2018-01-28T17:24:51.624Z,12.23
2018-01-28T17:27:21.571Z,12.19
2018-01-28T17:29:51.964Z,12.19
2018-01-28T17:32:21.985Z,12.16
2018-01-28T17:34:52.448Z,12.15
2018-01-28T17:37:22.408Z,12.19
2018-01-28T17:39:52.507Z,12.03
2018-01-28T17:42:22.456Z,11.95
2018-01-28T17:44:52.387Z,11.96
2018-01-28T17:47:22.555Z,11.97
2018-01-28T17:49:52.748Z,12.02
2018-01-28T17:52:22.545Z,11.99
2018-01-28T17:54:52.352Z,12.07
2018-01-28T17:57:23.358Z,12.00
2018-01-28T17:59:53.194Z,11.97
2018-01-28T18:02:24.070Z,11.92
2018-01-28T18:04:53.956Z,11.99
2018-01-28T18:07:25.770Z,11.90
2018-01-28T18:09:55.629Z,11.98
2018-01-28T18:12:25.554Z,12.03
2018-01-28T18:14:56.515Z,12.00
2018-01-28T18:17:28.381Z,12.05
2018-01-28T18:19:58.412Z,12.06
2018-01-28T18:22:28.346Z,12.13
2018-01-28T18:24:58.655Z,12.09
2018-01-28T18:27:28.582Z,12.13
2018-01-28T18:29:58.678Z,12.09
2018-01-28T18:32:28.507Z,12.14
2018-01-28T18:34:58.630Z,12.06
2018-01-28T18:37:28.439Z,12.09
2018-01-28T18:39:58.350Z,12.06
2018-01-28T18:42:28.258Z,12.06
2018-01-28T18:44:58.063Z,12.10
2018-01-28T18:47:28.332Z,12.03
2018-01-28T18:49:59.166Z,12.06
2018-01-28T18:52:29.368Z,12.03
2018-01-28T18:54:59.386Z,11.99
2018-01-28T18:57:29.272Z,11.98
2018-01-28T18:59:59.094Z,12.01
2018-01-28T19:02:29.106Z,12.03
2018-01-28T19:04:58.963Z,12.04
2018-01-28T19:07:28.898Z,12.00
2018-01-28T19:09:58.890Z,11.99
2018-01-28T19:12:28.828Z,12.02
2018-01-28T19:14:58.700Z,11.92
2018-01-28T19:17:29.414Z,11.94
2018-01-28T19:19:59.688Z,12.01
2018-01-28T19:22:29.701Z,12.02
2018-01-28T19:25:00.985Z,12.03
2018-01-28T19:27:31.183Z,12.04
2018-01-28T19:30:01.189Z,11.98
2018-01-28T19:32:31.214Z,11.97
2018-01-28T19:35:01.240Z,12.02
2018-01-28T19:37:31.468Z,11.96
2018-01-28T19:40:03.178Z,11.97
2018-01-28T19:42:33.121Z,11.98
2018-01-28T19:45:03.901Z,11.98
2018-01-28T19:47:33.886Z,11.99
2018-01-28T19:50:05.087Z,11.99
2018-01-28T19:52:35.097Z,11.96
2018-01-28T19:55:05.627Z,11.98
2018-01-28T19:57:35.536Z,11.99
2018-01-28T20:00:06.291Z,12.01
2018-01-28T20:02:36.668Z,11.93
2018-01-28T20:05:06.606Z,11.89
2018-01-28T20:07:37.625Z,11.88
2018-01-28T20:10:07.659Z,11.98
2018-01-28T20:12:38.214Z,11.97
2018-01-28T20:15:08.305Z,11.99
2018-01-28T20:17:39.559Z,11.95
2018-01-28T20:20:10.674Z,11.96
2018-01-28T20:22:41.127Z,11.95
2018-01-28T20:25:12.371Z,12.00
2018-01-28T20:27:42.781Z,11.99
2018-01-28T20:30:13.660Z,12.01
2018-01-28T20:32:44.236Z,12.00
2018-01-28T20:35:14.953Z,12.07
2018-01-28T20:37:45.331Z,12.06
2018-01-28T20:40:16.628Z,12.02
2018-01-28T20:42:46.861Z,11.96
2018-01-28T20:45:16.882Z,11.96
2018-01-28T20:47:46.914Z,11.95
2018-01-28T20:50:17.070Z,11.96
2018-01-28T20:52:48.164Z,11.99
2018-01-28T20:55:18.423Z,11.98
2018-01-28T20:57:49.430Z,11.91
2018-01-28T21:00:19.833Z,11.99
2018-01-28T21:02:52.633Z,12.07
2018-01-28T21:05:23.104Z,12.05
2018-01-28T21:07:53.831Z,12.06
2018-01-28T21:10:24.286Z,12.06
2018-01-28T21:12:54.659Z,12.09
2018-01-28T21:15:25.455Z,12.13
2018-01-28T21:17:55.837Z,12.18
2018-01-28T21:20:26.673Z,12.08
2018-01-28T21:22:56.936Z,12.14
2018-01-28T21:25:28.119Z,12.08
2018-01-28T21:27:58.677Z,12.08
2018-01-28T21:30:29.189Z,11.99
2018-01-28T21:32:59.415Z,12.06
2018-01-28T21:35:29.681Z,12.02
2018-01-28T21:38:00.725Z,12.05
2018-01-28T21:40:31.918Z,12.03
2018-01-28T21:43:02.160Z,12.02
2018-01-28T21:45:32.319Z,11.96
2018-01-28T21:48:03.264Z,12.02
2018-01-28T21:50:34.044Z,12.04
2018-01-28T21:53:04.244Z,12.05
2018-01-28T21:55:34.581Z,12.05
2018-01-28T21:58:05.231Z,12.02
2018-01-28T22:00:35.593Z,11.93
2018-01-28T22:03:06.088Z,11.99
2018-01-28T22:05:36.308Z,11.97
2018-01-28T22:08:06.731Z,12.10
2018-01-28T22:10:36.973Z,12.07
2018-01-28T22:13:07.586Z,11.97
2018-01-28T22:15:38.543Z,12.01
2018-01-28T22:18:08.889Z,11.97
2018-01-28T22:20:39.479Z,11.93
2018-01-28T22:23:09.673Z,11.87
2018-01-28T22:25:39.910Z,11.88
2018-01-28T22:28:11.199Z,11.90
2018-01-28T22:30:41.375Z,11.92
2018-01-28T22:33:11.420Z,11.89
2018-01-28T22:35:41.412Z,11.86
2018-01-28T22:38:11.882Z,11.90
2018-01-28T22:40:42.514Z,11.94
2018-01-28T22:43:13.429Z,11.95
2018-01-28T22:45:43.871Z,11.88
2018-01-28T22:48:14.093Z,11.80
2018-01-28T22:50:44.734Z,11.90
2018-01-28T22:53:15.111Z,11.88
2018-01-28T22:55:45.633Z,11.97
2018-01-28T22:58:16.558Z,11.95
2018-01-28T23:00:47.611Z,11.90
2018-01-28T23:03:18.813Z,11.87
2018-01-28T23:05:49.279Z,11.82
2018-01-28T23:08:20.714Z,11.83
2018-01-28T23:10:51.905Z,11.74
2018-01-28T23:13:22.585Z,11.72
2018-01-28T23:15:53.687Z,11.69
2018-01-28T23:18:24.484Z,11.65
2018-01-28T23:20:54.706Z,11.61
2018-01-28T23:23:25.741Z,11.65
2018-01-28T23:25:56.097Z,11.60
2018-01-28T23:28:26.688Z,11.59
2018-01-28T23:30:57.175Z,11.59
2018-01-28T23:33:27.904Z,11.56
2018-01-28T23:35:58.323Z,11.64
2018-01-28T23:38:28.656Z,11.61
2018-01-28T23:40:59.081Z,11.61
2018-01-28T23:43:29.354Z,11.60
2018-01-28T23:45:59.746Z,11.51
2018-01-28T23:48:30.067Z,11.51
2018-01-28T23:51:00.287Z,11.39
2018-01-28T23:53:30.751Z,11.41
2018-01-28T23:56:00.835Z,11.39
2018-01-28T23:58:31.054Z,11.39
